sensor_id;sensor_type;location;lat;lon;timestamp;P1;durP1;ratioP1;P2;durP2;ratioP2
55423;SDS011;41294;42.666;23.350;2023-08-06T00:01:24;5.18;;;3.55;;
55423;SDS011;41294;42.666;23.350;2023-08-06T00:03:50;5.35;;;3.58;;
55423;SDS011;41294;42.666;23.350;2023-08-06T00:06:16;4.18;;;3.33;;
55423;SDS011;41294;42.666;23.350;2023-08-06T00:08:41;3.50;;;3.20;;
55423;SDS011;41294;42.666;23.350;2023-08-06T00:11:06;3.95;;;3.58;;
55423;SDS011;41294;42.666;23.350;2023-08-06T00:13:32;6.70;;;3.85;;
55423;SDS011;41294;42.666;23.350;2023-08-06T00:16:13;4.50;;;3.88;;
55423;SDS011;41294;42.666;23.350;2023-08-06T00:18:39;6.03;;;3.47;;
55423;SDS011;41294;42.666;23.350;2023-08-06T00:21:05;3.70;;;3.40;;
55423;SDS011;41294;42.666;23.350;2023-08-06T00:23:30;4.00;;;3.60;;
55423;SDS011;41294;42.666;23.350;2023-08-06T00:25:56;3.50;;;3.20;;
55423;SDS011;41294;42.666;23.350;2023-08-06T00:28:21;4.85;;;3.58;;
55423;SDS011;41294;42.666;23.350;2023-08-06T00:30:52;5.15;;;4.13;;
55423;SDS011;41294;42.666;23.350;2023-08-06T00:33:18;3.65;;;3.35;;
55423;SDS011;41294;42.666;23.350;2023-08-06T00:35:43;4.00;;;3.60;;
55423;SDS011;41294;42.666;23.350;2023-08-06T00:38:09;3.72;;;3.25;;
55423;SDS011;41294;42.666;23.350;2023-08-06T00:40:34;4.05;;;3.60;;
55423;SDS011;41294;42.666;23.350;2023-08-06T00:43:00;4.07;;;3.55;;
55423;SDS011;41294;42.666;23.350;2023-08-06T00:45:25;4.00;;;3.42;;
55423;SDS011;41294;42.666;23.350;2023-08-06T00:47:52;4.75;;;3.25;;
55423;SDS011;41294;42.666;23.350;2023-08-06T00:50:18;3.72;;;3.42;;
55423;SDS011;41294;42.666;23.350;2023-08-06T00:52:46;3.88;;;3.58;;
55423;SDS011;41294;42.666;23.350;2023-08-06T00:55:11;4.47;;;4.00;;
55423;SDS011;41294;42.666;23.350;2023-08-06T00:57:37;4.30;;;3.85;;
55423;SDS011;41294;42.666;23.350;2023-08-06T01:00:02;3.72;;;3.35;;
55423;SDS011;41294;42.666;23.350;2023-08-06T01:02:29;3.92;;;3.63;;
55423;SDS011;41294;42.666;23.350;2023-08-06T01:04:54;4.63;;;3.90;;
55423;SDS011;41294;42.666;23.350;2023-08-06T01:12:49;5.10;;;3.67;;
55423;SDS011;41294;42.666;23.350;2023-08-06T01:15:24;4.60;;;4.07;;
55423;SDS011;41294;42.666;23.350;2023-08-06T01:17:54;4.88;;;3.70;;
55423;SDS011;41294;42.666;23.350;2023-08-06T01:20:19;3.95;;;3.58;;
55423;SDS011;41294;42.666;23.350;2023-08-06T01:22:45;4.97;;;4.10;;
55423;SDS011;41294;42.666;23.350;2023-08-06T01:25:10;4.50;;;3.92;;
55423;SDS011;41294;42.666;23.350;2023-08-06T01:27:46;4.43;;;4.03;;
55423;SDS011;41294;42.666;23.350;2023-08-06T01:30:22;4.50;;;4.10;;
55423;SDS011;41294;42.666;23.350;2023-08-06T01:32:53;5.32;;;3.97;;
55423;SDS011;41294;42.666;23.350;2023-08-06T01:35:23;4.72;;;3.95;;
55423;SDS011;41294;42.666;23.350;2023-08-06T01:37:51;4.40;;;3.95;;
55423;SDS011;41294;42.666;23.350;2023-08-06T01:40:17;4.50;;;4.00;;
55423;SDS011;41294;42.666;23.350;2023-08-06T01:42:42;5.82;;;4.75;;
55423;SDS011;41294;42.666;23.350;2023-08-06T01:45:08;5.55;;;4.20;;
55423;SDS011;41294;42.666;23.350;2023-08-06T01:47:35;7.82;;;4.50;;
55423;SDS011;41294;42.666;23.350;2023-08-06T01:50:00;4.53;;;4.00;;
55423;SDS011;41294;42.666;23.350;2023-08-06T01:52:26;5.68;;;4.50;;
55423;SDS011;41294;42.666;23.350;2023-08-06T01:54:52;4.28;;;3.78;;
55423;SDS011;41294;42.666;23.350;2023-08-06T01:57:17;6.53;;;4.38;;
55423;SDS011;41294;42.666;23.350;2023-08-06T01:59:43;4.90;;;4.50;;
55423;SDS011;41294;42.666;23.350;2023-08-06T02:02:08;5.85;;;4.50;;
55423;SDS011;41294;42.666;23.350;2023-08-06T02:04:34;5.05;;;4.55;;
55423;SDS011;41294;42.666;23.350;2023-08-06T02:06:59;5.07;;;4.68;;
55423;SDS011;41294;42.666;23.350;2023-08-06T02:09:25;6.78;;;4.55;;
55423;SDS011;41294;42.666;23.350;2023-08-06T02:11:50;5.45;;;4.95;;
55423;SDS011;41294;42.666;23.350;2023-08-06T02:14:15;4.70;;;4.30;;
55423;SDS011;41294;42.666;23.350;2023-08-06T02:16:41;5.22;;;4.43;;
55423;SDS011;41294;42.666;23.350;2023-08-06T02:19:06;4.28;;;3.80;;
55423;SDS011;41294;42.666;23.350;2023-08-06T02:21:32;5.53;;;4.43;;
55423;SDS011;41294;42.666;23.350;2023-08-06T02:23:57;4.90;;;4.40;;
55423;SDS011;41294;42.666;23.350;2023-08-06T02:26:22;4.68;;;4.15;;
55423;SDS011;41294;42.666;23.350;2023-08-06T02:28:48;4.53;;;4.13;;
55423;SDS011;41294;42.666;23.350;2023-08-06T02:31:13;5.07;;;4.57;;
55423;SDS011;41294;42.666;23.350;2023-08-06T02:33:38;4.88;;;4.40;;
55423;SDS011;41294;42.666;23.350;2023-08-06T02:36:04;4.47;;;3.80;;
55423;SDS011;41294;42.666;23.350;2023-08-06T02:38:30;5.10;;;4.55;;
55423;SDS011;41294;42.666;23.350;2023-08-06T02:40:56;5.30;;;3.95;;
55423;SDS011;41294;42.666;23.350;2023-08-06T02:43:21;5.78;;;4.10;;
55423;SDS011;41294;42.666;23.350;2023-08-06T02:45:47;7.60;;;4.30;;
55423;SDS011;41294;42.666;23.350;2023-08-06T02:48:12;6.75;;;4.13;;
55423;SDS011;41294;42.666;23.350;2023-08-06T02:50:41;4.30;;;3.90;;
55423;SDS011;41294;42.666;23.350;2023-08-06T02:53:07;4.38;;;3.97;;
55423;SDS011;41294;42.666;23.350;2023-08-06T02:55:33;4.63;;;3.92;;
55423;SDS011;41294;42.666;23.350;2023-08-06T02:58:02;5.25;;;3.78;;
55423;SDS011;41294;42.666;23.350;2023-08-06T03:00:27;4.20;;;3.70;;
55423;SDS011;41294;42.666;23.350;2023-08-06T03:02:53;3.75;;;3.40;;
55423;SDS011;41294;42.666;23.350;2023-08-06T03:05:19;4.10;;;3.70;;
55423;SDS011;41294;42.666;23.350;2023-08-06T03:07:44;4.07;;;3.78;;
55423;SDS011;41294;42.666;23.350;2023-08-06T03:10:10;4.15;;;3.80;;
55423;SDS011;41294;42.666;23.350;2023-08-06T03:12:35;5.60;;;4.57;;
55423;SDS011;41294;42.666;23.350;2023-08-06T03:15:01;4.55;;;4.15;;
55423;SDS011;41294;42.666;23.350;2023-08-06T03:17:26;5.55;;;4.40;;
55423;SDS011;41294;42.666;23.350;2023-08-06T03:19:51;4.30;;;4.00;;
55423;SDS011;41294;42.666;23.350;2023-08-06T03:22:17;4.63;;;4.22;;
55423;SDS011;41294;42.666;23.350;2023-08-06T03:24:42;5.70;;;4.00;;
55423;SDS011;41294;42.666;23.350;2023-08-06T03:27:08;4.80;;;4.30;;
55423;SDS011;41294;42.666;23.350;2023-08-06T03:29:33;4.32;;;3.92;;
55423;SDS011;41294;42.666;23.350;2023-08-06T03:31:58;4.65;;;4.25;;
55423;SDS011;41294;42.666;23.350;2023-08-06T03:34:24;4.47;;;3.90;;
55423;SDS011;41294;42.666;23.350;2023-08-06T03:36:49;4.90;;;4.38;;
55423;SDS011;41294;42.666;23.350;2023-08-06T03:39:14;5.57;;;4.28;;
55423;SDS011;41294;42.666;23.350;2023-08-06T03:41:40;4.18;;;3.78;;
55423;SDS011;41294;42.666;23.350;2023-08-06T03:44:05;4.40;;;4.00;;
55423;SDS011;41294;42.666;23.350;2023-08-06T03:46:31;4.95;;;4.45;;
55423;SDS011;41294;42.666;23.350;2023-08-06T03:48:59;5.55;;;5.03;;
55423;SDS011;41294;42.666;23.350;2023-08-06T03:51:25;6.00;;;4.53;;
55423;SDS011;41294;42.666;23.350;2023-08-06T03:53:51;4.68;;;4.18;;
55423;SDS011;41294;42.666;23.350;2023-08-06T03:56:16;5.55;;;4.70;;
55423;SDS011;41294;42.666;23.350;2023-08-06T03:58:42;5.45;;;4.43;;
55423;SDS011;41294;42.666;23.350;2023-08-06T04:01:07;5.20;;;4.63;;
55423;SDS011;41294;42.666;23.350;2023-08-06T04:03:33;5.05;;;4.40;;
55423;SDS011;41294;42.666;23.350;2023-08-06T04:05:58;5.47;;;4.18;;
55423;SDS011;41294;42.666;23.350;2023-08-06T04:08:24;5.90;;;4.13;;
55423;SDS011;41294;42.666;23.350;2023-08-06T04:10:51;4.88;;;4.30;;
55423;SDS011;41294;42.666;23.350;2023-08-06T04:13:17;4.55;;;4.15;;
55423;SDS011;41294;42.666;23.350;2023-08-06T04:15:43;5.13;;;4.53;;
55423;SDS011;41294;42.666;23.350;2023-08-06T04:18:08;5.35;;;4.68;;
55423;SDS011;41294;42.666;23.350;2023-08-06T04:20:33;6.18;;;4.72;;
55423;SDS011;41294;42.666;23.350;2023-08-06T04:22:59;4.38;;;3.95;;
55423;SDS011;41294;42.666;23.350;2023-08-06T04:25:30;4.18;;;3.88;;
55423;SDS011;41294;42.666;23.350;2023-08-06T04:27:56;4.45;;;4.07;;
55423;SDS011;41294;42.666;23.350;2023-08-06T04:30:21;5.05;;;4.55;;
55423;SDS011;41294;42.666;23.350;2023-08-06T04:32:46;4.32;;;3.92;;
55423;SDS011;41294;42.666;23.350;2023-08-06T04:35:12;6.00;;;4.20;;
55423;SDS011;41294;42.666;23.350;2023-08-06T04:37:37;4.45;;;4.07;;
55423;SDS011;41294;42.666;23.350;2023-08-06T04:40:02;3.97;;;3.67;;
55423;SDS011;41294;42.666;23.350;2023-08-06T04:42:28;3.97;;;3.58;;
55423;SDS011;41294;42.666;23.350;2023-08-06T04:44:53;4.10;;;3.80;;
55423;SDS011;41294;42.666;23.350;2023-08-06T04:47:19;3.92;;;3.63;;
55423;SDS011;41294;42.666;23.350;2023-08-06T04:49:44;4.80;;;3.60;;
55423;SDS011;41294;42.666;23.350;2023-08-06T04:52:10;4.72;;;3.90;;
55423;SDS011;41294;42.666;23.350;2023-08-06T04:54:35;4.55;;;4.15;;
55423;SDS011;41294;42.666;23.350;2023-08-06T04:57:00;4.63;;;4.22;;
55423;SDS011;41294;42.666;23.350;2023-08-06T04:59:26;4.65;;;4.28;;
55423;SDS011;41294;42.666;23.350;2023-08-06T05:01:51;4.18;;;3.88;;
55423;SDS011;41294;42.666;23.350;2023-08-06T05:04:16;4.05;;;3.65;;
55423;SDS011;41294;42.666;23.350;2023-08-06T05:06:42;4.63;;;4.25;;
55423;SDS011;41294;42.666;23.350;2023-08-06T05:09:07;4.38;;;4.07;;
55423;SDS011;41294;42.666;23.350;2023-08-06T05:11:32;5.15;;;4.45;;
55423;SDS011;41294;42.666;23.350;2023-08-06T05:13:58;6.38;;;5.78;;
55423;SDS011;41294;42.666;23.350;2023-08-06T05:16:23;5.43;;;4.82;;
55423;SDS011;41294;42.666;23.350;2023-08-06T05:18:49;5.35;;;4.85;;
55423;SDS011;41294;42.666;23.350;2023-08-06T05:21:14;5.00;;;4.35;;
55423;SDS011;41294;42.666;23.350;2023-08-06T05:23:41;5.68;;;4.57;;
55423;SDS011;41294;42.666;23.350;2023-08-06T05:26:07;4.40;;;4.10;;
55423;SDS011;41294;42.666;23.350;2023-08-06T05:28:32;6.07;;;4.00;;
55423;SDS011;41294;42.666;23.350;2023-08-06T05:30:58;4.60;;;4.20;;
55423;SDS011;41294;42.666;23.350;2023-08-06T05:33:23;4.55;;;4.13;;
55423;SDS011;41294;42.666;23.350;2023-08-06T05:35:49;5.38;;;4.90;;
55423;SDS011;41294;42.666;23.350;2023-08-06T05:38:16;5.75;;;5.25;;
55423;SDS011;41294;42.666;23.350;2023-08-06T05:40:42;6.63;;;5.45;;
55423;SDS011;41294;42.666;23.350;2023-08-06T05:43:08;6.72;;;6.05;;
55423;SDS011;41294;42.666;23.350;2023-08-06T05:45:33;6.70;;;6.10;;
55423;SDS011;41294;42.666;23.350;2023-08-06T05:47:58;7.72;;;7.03;;
55423;SDS011;41294;42.666;23.350;2023-08-06T05:50:24;8.38;;;7.57;;
55423;SDS011;41294;42.666;23.350;2023-08-06T05:52:49;8.85;;;8.00;;
55423;SDS011;41294;42.666;23.350;2023-08-06T05:55:15;8.85;;;8.15;;
55423;SDS011;41294;42.666;23.350;2023-08-06T05:57:40;6.68;;;6.05;;
55423;SDS011;41294;42.666;23.350;2023-08-06T06:00:06;5.40;;;4.80;;
55423;SDS011;41294;42.666;23.350;2023-08-06T06:02:32;4.18;;;3.88;;
55423;SDS011;41294;42.666;23.350;2023-08-06T06:04:58;4.10;;;3.28;;
55423;SDS011;41294;42.666;23.350;2023-08-06T06:07:23;3.10;;;2.90;;
55423;SDS011;41294;42.666;23.350;2023-08-06T06:09:48;3.35;;;3.10;;
55423;SDS011;41294;42.666;23.350;2023-08-06T06:12:14;4.35;;;2.72;;
55423;SDS011;41294;42.666;23.350;2023-08-06T06:14:39;2.40;;;2.20;;
55423;SDS011;41294;42.666;23.350;2023-08-06T06:17:05;2.58;;;2.47;;
55423;SDS011;41294;42.666;23.350;2023-08-06T06:19:30;3.30;;;2.60;;
55423;SDS011;41294;42.666;23.350;2023-08-06T06:21:56;3.05;;;2.80;;
55423;SDS011;41294;42.666;23.350;2023-08-06T06:24:22;2.55;;;2.30;;
55423;SDS011;41294;42.666;23.350;2023-08-06T06:26:48;4.55;;;2.42;;
55423;SDS011;41294;42.666;23.350;2023-08-06T06:29:13;2.80;;;2.40;;
55423;SDS011;41294;42.666;23.350;2023-08-06T06:31:39;2.58;;;2.38;;
55423;SDS011;41294;42.666;23.350;2023-08-06T06:34:04;2.78;;;2.30;;
55423;SDS011;41294;42.666;23.350;2023-08-06T06:36:29;2.40;;;2.20;;
55423;SDS011;41294;42.666;23.350;2023-08-06T06:38:55;2.40;;;2.20;;
55423;SDS011;41294;42.666;23.350;2023-08-06T06:41:20;2.17;;;1.98;;
55423;SDS011;41294;42.666;23.350;2023-08-06T06:43:45;2.47;;;2.28;;
55423;SDS011;41294;42.666;23.350;2023-08-06T06:46:11;3.90;;;2.10;;
55423;SDS011;41294;42.666;23.350;2023-08-06T06:48:36;2.28;;;2.10;;
55423;SDS011;41294;42.666;23.350;2023-08-06T06:51:02;1.80;;;1.70;;
55423;SDS011;41294;42.666;23.350;2023-08-06T06:53:28;3.47;;;1.85;;
55423;SDS011;41294;42.666;23.350;2023-08-06T06:55:53;2.35;;;2.05;;
55423;SDS011;41294;42.666;23.350;2023-08-06T06:58:19;2.03;;;1.80;;
55423;SDS011;41294;42.666;23.350;2023-08-06T07:00:45;2.83;;;2.17;;
55423;SDS011;41294;42.666;23.350;2023-08-06T07:03:16;2.17;;;2.08;;
55423;SDS011;41294;42.666;23.350;2023-08-06T07:05:42;2.60;;;2.40;;
55423;SDS011;41294;42.666;23.350;2023-08-06T07:08:08;3.10;;;2.80;;
55423;SDS011;41294;42.666;23.350;2023-08-06T07:10:34;3.15;;;2.50;;
55423;SDS011;41294;42.666;23.350;2023-08-06T07:12:59;3.40;;;2.47;;
55423;SDS011;41294;42.666;23.350;2023-08-06T07:15:25;2.55;;;2.35;;
55423;SDS011;41294;42.666;23.350;2023-08-06T07:17:50;3.97;;;2.47;;
55423;SDS011;41294;42.666;23.350;2023-08-06T07:20:16;2.58;;;2.38;;
55423;SDS011;41294;42.666;23.350;2023-08-06T07:22:41;2.53;;;2.40;;
55423;SDS011;41294;42.666;23.350;2023-08-06T07:25:07;2.80;;;2.60;;
55423;SDS011;41294;42.666;23.350;2023-08-06T07:27:32;3.38;;;2.47;;
55423;SDS011;41294;42.666;23.350;2023-08-06T07:29:58;4.32;;;2.50;;
55423;SDS011;41294;42.666;23.350;2023-08-06T07:32:24;2.50;;;2.30;;
55423;SDS011;41294;42.666;23.350;2023-08-06T07:34:49;3.25;;;2.42;;
55423;SDS011;41294;42.666;23.350;2023-08-06T07:37:15;2.50;;;2.30;;
55423;SDS011;41294;42.666;23.350;2023-08-06T07:39:41;3.88;;;2.47;;
55423;SDS011;41294;42.666;23.350;2023-08-06T07:42:07;3.60;;;2.30;;
55423;SDS011;41294;42.666;23.350;2023-08-06T07:44:52;2.47;;;2.25;;
55423;SDS011;41294;42.666;23.350;2023-08-06T07:47:19;2.90;;;2.70;;
55423;SDS011;41294;42.666;23.350;2023-08-06T07:49:45;2.55;;;2.35;;
55423;SDS011;41294;42.666;23.350;2023-08-06T07:52:10;2.75;;;2.22;;
55423;SDS011;41294;42.666;23.350;2023-08-06T07:54:36;2.30;;;2.20;;
55423;SDS011;41294;42.666;23.350;2023-08-06T07:57:01;2.55;;;2.35;;
55423;SDS011;41294;42.666;23.350;2023-08-06T07:59:27;2.60;;;2.40;;
55423;SDS011;41294;42.666;23.350;2023-08-06T08:01:52;2.60;;;2.40;;
55423;SDS011;41294;42.666;23.350;2023-08-06T08:04:17;2.25;;;1.92;;
55423;SDS011;41294;42.666;23.350;2023-08-06T08:06:43;2.60;;;2.40;;
55423;SDS011;41294;42.666;23.350;2023-08-06T08:09:08;4.07;;;2.63;;
55423;SDS011;41294;42.666;23.350;2023-08-06T08:11:33;3.20;;;2.45;;
55423;SDS011;41294;42.666;23.350;2023-08-06T08:13:59;2.75;;;2.50;;
55423;SDS011;41294;42.666;23.350;2023-08-06T08:16:24;4.82;;;2.67;;
55423;SDS011;41294;42.666;23.350;2023-08-06T08:18:50;3.25;;;2.60;;
55423;SDS011;41294;42.666;23.350;2023-08-06T08:21:15;3.85;;;2.63;;
55423;SDS011;41294;42.666;23.350;2023-08-06T08:23:40;2.70;;;2.50;;
55423;SDS011;41294;42.666;23.350;2023-08-06T08:26:07;3.90;;;2.53;;
55423;SDS011;41294;42.666;23.350;2023-08-06T08:28:32;2.30;;;2.10;;
55423;SDS011;41294;42.666;23.350;2023-08-06T08:30:58;3.42;;;2.30;;
55423;SDS011;41294;42.666;23.350;2023-08-06T08:33:23;2.60;;;2.40;;
55423;SDS011;41294;42.666;23.350;2023-08-06T08:35:48;2.58;;;2.47;;
55423;SDS011;41294;42.666;23.350;2023-08-06T08:38:14;3.42;;;2.53;;
55423;SDS011;41294;42.666;23.350;2023-08-06T08:40:41;2.40;;;2.20;;
55423;SDS011;41294;42.666;23.350;2023-08-06T08:43:14;3.17;;;2.40;;
55423;SDS011;41294;42.666;23.350;2023-08-06T08:45:40;2.30;;;2.05;;
55423;SDS011;41294;42.666;23.350;2023-08-06T08:48:08;5.22;;;2.55;;
55423;SDS011;41294;42.666;23.350;2023-08-06T08:50:37;2.75;;;2.50;;
55423;SDS011;41294;42.666;23.350;2023-08-06T08:53:04;3.60;;;2.63;;
55423;SDS011;41294;42.666;23.350;2023-08-06T08:55:30;2.88;;;2.40;;
55423;SDS011;41294;42.666;23.350;2023-08-06T08:57:56;2.50;;;2.30;;
55423;SDS011;41294;42.666;23.350;2023-08-06T09:00:22;2.95;;;2.75;;
55423;SDS011;41294;42.666;23.350;2023-08-06T09:02:47;2.72;;;2.53;;
55423;SDS011;41294;42.666;23.350;2023-08-06T09:05:13;2.63;;;2.42;;
55423;SDS011;41294;42.666;23.350;2023-08-06T09:07:43;3.80;;;2.55;;
55423;SDS011;41294;42.666;23.350;2023-08-06T09:10:13;3.45;;;2.60;;
55423;SDS011;41294;42.666;23.350;2023-08-06T09:12:42;2.78;;;2.58;;
55423;SDS011;41294;42.666;23.350;2023-08-06T09:15:09;4.45;;;2.70;;
55423;SDS011;41294;42.666;23.350;2023-08-06T09:17:35;2.30;;;2.20;;
55423;SDS011;41294;42.666;23.350;2023-08-06T09:20:11;2.60;;;2.40;;
55423;SDS011;41294;42.666;23.350;2023-08-06T09:22:37;3.03;;;2.63;;
55423;SDS011;41294;42.666;23.350;2023-08-06T09:25:03;3.00;;;2.70;;
55423;SDS011;41294;42.666;23.350;2023-08-06T09:27:31;3.05;;;2.67;;
55423;SDS011;41294;42.666;23.350;2023-08-06T09:29:56;3.17;;;2.88;;
55423;SDS011;41294;42.666;23.350;2023-08-06T09:32:21;3.47;;;2.50;;
55423;SDS011;41294;42.666;23.350;2023-08-06T09:34:47;3.40;;;2.85;;
55423;SDS011;41294;42.666;23.350;2023-08-06T09:37:21;3.35;;;2.58;;
55423;SDS011;41294;42.666;23.350;2023-08-06T09:39:47;2.53;;;2.40;;
55423;SDS011;41294;42.666;23.350;2023-08-06T09:42:14;2.55;;;2.35;;
55423;SDS011;41294;42.666;23.350;2023-08-06T09:44:40;3.00;;;2.35;;
55423;SDS011;41294;42.666;23.350;2023-08-06T09:47:06;2.70;;;2.50;;
55423;SDS011;41294;42.666;23.350;2023-08-06T09:51:56;2.03;;;1.92;;
55423;SDS011;41294;42.666;23.350;2023-08-06T09:54:24;2.70;;;2.20;;
55423;SDS011;41294;42.666;23.350;2023-08-06T09:56:52;4.00;;;2.38;;
55423;SDS011;41294;42.666;23.350;2023-08-06T09:59:18;2.83;;;2.20;;
55423;SDS011;41294;42.666;23.350;2023-08-06T10:01:44;3.00;;;2.33;;
55423;SDS011;41294;42.666;23.350;2023-08-06T10:04:10;2.67;;;2.47;;
55423;SDS011;41294;42.666;23.350;2023-08-06T10:06:38;2.15;;;2.00;;
55423;SDS011;41294;42.666;23.350;2023-08-06T10:09:04;2.45;;;1.90;;
55423;SDS011;41294;42.666;23.350;2023-08-06T10:11:30;3.45;;;2.15;;
55423;SDS011;41294;42.666;23.350;2023-08-06T10:14:00;2.30;;;2.10;;
55423;SDS011;41294;42.666;23.350;2023-08-06T10:16:30;3.85;;;2.17;;
55423;SDS011;41294;42.666;23.350;2023-08-06T10:18:57;2.55;;;2.35;;
55423;SDS011;41294;42.666;23.350;2023-08-06T10:21:24;3.25;;;1.90;;
55423;SDS011;41294;42.666;23.350;2023-08-06T10:23:55;2.15;;;1.95;;
55423;SDS011;41294;42.666;23.350;2023-08-06T10:26:20;2.17;;;1.90;;
55423;SDS011;41294;42.666;23.350;2023-08-06T10:28:49;2.00;;;1.90;;
55423;SDS011;41294;42.666;23.350;2023-08-06T10:31:15;2.17;;;1.98;;
55423;SDS011;41294;42.666;23.350;2023-08-06T10:33:44;2.30;;;2.10;;
55423;SDS011;41294;42.666;23.350;2023-08-06T10:36:10;3.63;;;2.28;;
55423;SDS011;41294;42.666;23.350;2023-08-06T10:38:44;5.28;;;2.33;;
55423;SDS011;41294;42.666;23.350;2023-08-06T10:41:23;2.72;;;2.53;;
55423;SDS011;41294;42.666;23.350;2023-08-06T10:44:00;3.50;;;2.60;;
55423;SDS011;41294;42.666;23.350;2023-08-06T10:46:32;2.60;;;2.10;;
55423;SDS011;41294;42.666;23.350;2023-08-06T10:48:57;2.78;;;2.28;;
55423;SDS011;41294;42.666;23.350;2023-08-06T10:51:24;2.78;;;2.58;;
55423;SDS011;41294;42.666;23.350;2023-08-06T10:53:50;2.40;;;2.20;;
55423;SDS011;41294;42.666;23.350;2023-08-06T10:58:43;2.40;;;2.20;;
55423;SDS011;41294;42.666;23.350;2023-08-06T11:01:10;3.35;;;2.30;;
55423;SDS011;41294;42.666;23.350;2023-08-06T11:03:36;3.08;;;2.15;;
55423;SDS011;41294;42.666;23.350;2023-08-06T11:06:03;2.60;;;2.13;;
55423;SDS011;41294;42.666;23.350;2023-08-06T11:08:32;2.65;;;2.25;;
55423;SDS011;41294;42.666;23.350;2023-08-06T11:11:09;2.67;;;2.47;;
55423;SDS011;41294;42.666;23.350;2023-08-06T11:13:38;3.58;;;2.80;;
55423;SDS011;41294;42.666;23.350;2023-08-06T11:16:07;2.50;;;2.30;;
55423;SDS011;41294;42.666;23.350;2023-08-06T11:18:34;4.57;;;2.63;;
55423;SDS011;41294;42.666;23.350;2023-08-06T11:20:59;2.88;;;2.65;;
55423;SDS011;41294;42.666;23.350;2023-08-06T11:23:26;2.85;;;2.58;;
55423;SDS011;41294;42.666;23.350;2023-08-06T11:25:53;4.80;;;2.50;;
55423;SDS011;41294;42.666;23.350;2023-08-06T11:28:19;3.50;;;2.50;;
55423;SDS011;41294;42.666;23.350;2023-08-06T11:30:46;2.78;;;2.58;;
55423;SDS011;41294;42.666;23.350;2023-08-06T11:33:12;5.78;;;2.75;;
55423;SDS011;41294;42.666;23.350;2023-08-06T11:35:38;5.43;;;3.38;;
55423;SDS011;41294;42.666;23.350;2023-08-06T11:38:04;3.58;;;2.80;;
55423;SDS011;41294;42.666;23.350;2023-08-06T11:40:31;3.80;;;2.95;;
55423;SDS011;41294;42.666;23.350;2023-08-06T11:42:57;2.80;;;2.60;;
55423;SDS011;41294;42.666;23.350;2023-08-06T11:45:23;3.40;;;3.10;;
55423;SDS011;41294;42.666;23.350;2023-08-06T11:47:50;3.75;;;3.17;;
55423;SDS011;41294;42.666;23.350;2023-08-06T11:50:23;3.60;;;3.30;;
55423;SDS011;41294;42.666;23.350;2023-08-06T11:52:52;4.78;;;3.88;;
55423;SDS011;41294;42.666;23.350;2023-08-06T11:55:25;4.85;;;4.15;;
55423;SDS011;41294;42.666;23.350;2023-08-06T11:57:51;4.43;;;3.85;;
55423;SDS011;41294;42.666;23.350;2023-08-06T12:00:17;4.30;;;3.88;;
55423;SDS011;41294;42.666;23.350;2023-08-06T12:02:45;3.53;;;3.22;;
55423;SDS011;41294;42.666;23.350;2023-08-06T12:07:44;3.42;;;3.13;;
55423;SDS011;41294;42.666;23.350;2023-08-06T12:10:12;3.58;;;3.22;;
55423;SDS011;41294;42.666;23.350;2023-08-06T12:12:39;3.92;;;3.50;;
55423;SDS011;41294;42.666;23.350;2023-08-06T12:15:05;4.22;;;3.40;;
55423;SDS011;41294;42.666;23.350;2023-08-06T12:17:31;5.00;;;3.33;;
55423;SDS011;41294;42.666;23.350;2023-08-06T12:19:57;3.85;;;3.20;;
55423;SDS011;41294;42.666;23.350;2023-08-06T12:22:22;4.22;;;3.55;;
55423;SDS011;41294;42.666;23.350;2023-08-06T12:24:48;3.80;;;3.50;;
55423;SDS011;41294;42.666;23.350;2023-08-06T12:27:13;4.45;;;4.03;;
55423;SDS011;41294;42.666;23.350;2023-08-06T12:29:47;4.45;;;3.85;;
55423;SDS011;41294;42.666;23.350;2023-08-06T12:32:14;5.68;;;4.28;;
55423;SDS011;41294;42.666;23.350;2023-08-06T12:34:40;4.18;;;3.88;;
55423;SDS011;41294;42.666;23.350;2023-08-06T12:37:07;4.75;;;4.35;;
55423;SDS011;41294;42.666;23.350;2023-08-06T12:39:33;5.10;;;4.20;;
55423;SDS011;41294;42.666;23.350;2023-08-06T12:42:02;4.93;;;4.50;;
55423;SDS011;41294;42.666;23.350;2023-08-06T12:44:29;5.00;;;4.60;;
55423;SDS011;41294;42.666;23.350;2023-08-06T12:46:54;4.78;;;4.38;;
55423;SDS011;41294;42.666;23.350;2023-08-06T12:49:20;4.85;;;4.28;;
55423;SDS011;41294;42.666;23.350;2023-08-06T12:51:49;4.60;;;4.20;;
55423;SDS011;41294;42.666;23.350;2023-08-06T12:54:19;4.60;;;4.30;;
55423;SDS011;41294;42.666;23.350;2023-08-06T12:56:46;4.03;;;3.72;;
55423;SDS011;41294;42.666;23.350;2023-08-06T12:59:13;4.57;;;4.18;;
55423;SDS011;41294;42.666;23.350;2023-08-06T13:01:40;4.35;;;4.00;;
55423;SDS011;41294;42.666;23.350;2023-08-06T13:04:06;5.18;;;4.32;;
55423;SDS011;41294;42.666;23.350;2023-08-06T13:06:32;4.97;;;4.43;;
55423;SDS011;41294;42.666;23.350;2023-08-06T13:09:02;5.22;;;4.50;;
55423;SDS011;41294;42.666;23.350;2023-08-06T13:11:37;4.65;;;4.25;;
55423;SDS011;41294;42.666;23.350;2023-08-06T13:14:04;4.40;;;4.00;;
55423;SDS011;41294;42.666;23.350;2023-08-06T13:16:34;4.82;;;4.43;;
55423;SDS011;41294;42.666;23.350;2023-08-06T13:19:00;4.40;;;4.10;;
55423;SDS011;41294;42.666;23.350;2023-08-06T13:24:06;5.03;;;3.95;;
55423;SDS011;41294;42.666;23.350;2023-08-06T13:26:32;4.95;;;4.55;;
55423;SDS011;41294;42.666;23.350;2023-08-06T13:28:58;4.50;;;4.10;;
55423;SDS011;41294;42.666;23.350;2023-08-06T13:31:24;4.90;;;4.28;;
55423;SDS011;41294;42.666;23.350;2023-08-06T13:33:50;4.40;;;3.92;;
55423;SDS011;41294;42.666;23.350;2023-08-06T13:36:16;4.63;;;4.15;;
55423;SDS011;41294;42.666;23.350;2023-08-06T13:38:42;4.78;;;4.38;;
55423;SDS011;41294;42.666;23.350;2023-08-06T13:41:08;4.50;;;4.10;;
55423;SDS011;41294;42.666;23.350;2023-08-06T13:43:33;4.25;;;3.85;;
55423;SDS011;41294;42.666;23.350;2023-08-06T13:45:58;4.60;;;4.20;;
55423;SDS011;41294;42.666;23.350;2023-08-06T13:48:24;5.32;;;3.72;;
55423;SDS011;41294;42.666;23.350;2023-08-06T13:50:49;4.22;;;3.75;;
55423;SDS011;41294;42.666;23.350;2023-08-06T13:53:15;4.47;;;4.13;;
55423;SDS011;41294;42.666;23.350;2023-08-06T13:55:40;4.25;;;3.85;;
55423;SDS011;41294;42.666;23.350;2023-08-06T13:58:06;5.88;;;4.22;;
55423;SDS011;41294;42.666;23.350;2023-08-06T14:00:31;5.13;;;4.22;;
55423;SDS011;41294;42.666;23.350;2023-08-06T14:02:57;4.72;;;3.80;;
55423;SDS011;41294;42.666;23.350;2023-08-06T14:05:22;4.50;;;4.00;;
55423;SDS011;41294;42.666;23.350;2023-08-06T14:07:47;4.53;;;4.10;;
55423;SDS011;41294;42.666;23.350;2023-08-06T14:10:13;4.32;;;3.85;;
55423;SDS011;41294;42.666;23.350;2023-08-06T14:12:38;4.40;;;3.85;;
55423;SDS011;41294;42.666;23.350;2023-08-06T14:15:04;4.03;;;3.55;;
55423;SDS011;41294;42.666;23.350;2023-08-06T14:17:29;4.40;;;4.00;;
55423;SDS011;41294;42.666;23.350;2023-08-06T14:19:55;3.90;;;3.50;;
55423;SDS011;41294;42.666;23.350;2023-08-06T14:22:21;3.72;;;3.42;;
55423;SDS011;41294;42.666;23.350;2023-08-06T14:24:47;3.80;;;3.50;;
55423;SDS011;41294;42.666;23.350;2023-08-06T14:27:12;3.70;;;3.40;;
55423;SDS011;41294;42.666;23.350;2023-08-06T14:29:38;4.20;;;3.40;;
55423;SDS011;41294;42.666;23.350;2023-08-06T14:32:03;4.85;;;4.18;;
55423;SDS011;41294;42.666;23.350;2023-08-06T14:34:29;4.38;;;3.20;;
55423;SDS011;41294;42.666;23.350;2023-08-06T14:36:54;4.30;;;4.00;;
55423;SDS011;41294;42.666;23.350;2023-08-06T14:39:20;4.18;;;3.88;;
55423;SDS011;41294;42.666;23.350;2023-08-06T14:41:45;3.90;;;3.60;;
55423;SDS011;41294;42.666;23.350;2023-08-06T14:44:11;4.40;;;3.35;;